Terminal Aerodrome Forecast
Issued by NWS Mt. Holly, NJ

Home | Current Version | Previous Version | Text Only | Print | Product List | Glossary On
Versions: 1 2 3 4 5 6 7 8 9 10 11 12 13 14 15 16 17 18 19 20 21 22 23 24 25 26 27 28 29 30 31
362
FTUS41 KPHI 290520
TAFTTN
TAF
KTTN 290520Z 2906/3006 05004KT 6SM BR SCT005 OVC020
      TEMPO 2906/2910 4SM -DZ BR OVC005
     FM291000 10010KT 5SM BR OVC012
     FM291600 10010KT P6SM OVC030
      TEMPO 2917/2921 5SM -RA BR BKN020
     FM300000 09006KT 5SM -DZ BR OVC012
     FM300300 06005KT 3SM -DZ BR OVC006=

USA.gov is the U.S. government's official web portal to all federal, state and local government web resources and services.